Wetterdaten: Woche 20.05.13 - 26.05.13 (KW21)
Datum Zeit Temp. A. Feuchte A. Luftdruck Regen Wind Richtung Taupunkt Windchill Windben
20.05.2013 00:00 15,3 C 70 % 1007,9 hPa 0,0 l/m 5,1 km/h N 9,8 C 15,3 C 20,9 km/h
20.05.2013 01:00 14,7 C 68 % 1008,3 hPa 0,0 l/m 6,8 km/h N 8,9 C 14,2 C 25,8 km/h
20.05.2013 02:00 14,1 C 67 % 1008,3 hPa 0,0 l/m 9,3 km/h N 8,2 C 12,6 C 26,1 km/h
20.05.2013 03:00 13,6 C 67 % 1008,5 hPa 0,0 l/m 9,7 km/h N 7,7 C 11,9 C 32,2 km/h
20.05.2013 04:00 13,4 C 67 % 1008,6 hPa 0,0 l/m 5,0 km/h N 7,4 C 13,3 C 22,1 km/h
20.05.2013 05:00 13,3 C 67 % 1009,2 hPa 0,0 l/m 6,0 km/h N 7,2 C 13,0 C 26,1 km/h
20.05.2013 06:00 13,6 C 64 % 1010,4 hPa 0,0 l/m 2,6 km/h N 6,9 C 13,6 C 14,9 km/h
20.05.2013 07:00 14,2 C 63 % 1011,3 hPa 0,0 l/m 1,8 km/h N 7,3 C 14,2 C 11,7 km/h
20.05.2013 08:00 15,2 C 61 % 1011,7 hPa 0,0 l/m 2,5 km/h N 7,6 C 15,2 C 12,5 km/h
20.05.2013 09:00 16,0 C 59 % 1012,6 hPa 0,0 l/m 3,0 km/h N 8,0 C 16,0 C 14,5 km/h
20.05.2013 10:00 16,5 C 60 % 1013,0 hPa 0,0 l/m 2,9 km/h N 8,6 C 16,5 C 14,9 km/h
20.05.2013 11:00 14,8 C 74 % 1013,5 hPa 0,5 l/m 0,9 km/h N 10,2 C 14,8 C 6,0 km/h
20.05.2013 12:00 16,7 C 68 % 1013,6 hPa 0,3 l/m 1,0 km/h N 10,5 C 16,7 C 5,6 km/h
20.05.2013 13:00 16,9 C 64 % 1013,8 hPa 0,0 l/m 4,2 km/h N 10,1 C 16,9 C 19,7 km/h
20.05.2013 14:00 17,6 C 60 % 1013,5 hPa 0,0 l/m 1,4 km/h N 9,6 C 17,6 C 6,8 km/h
20.05.2013 15:00 18,9 C 48 % 1012,8 hPa 0,0 l/m 2,7 km/h N 7,7 C 18,9 C 10,9 km/h
20.05.2013 16:00 18,4 C 53 % 1012,4 hPa 0,0 l/m 4,4 km/h N 8,7 C 18,4 C 14,5 km/h
20.05.2013 17:00 18,0 C 57 % 1012,3 hPa 0,0 l/m 4,6 km/h N 9,3 C 18,0 C 14,1 km/h
20.05.2013 18:00 18,1 C 59 % 1011,4 hPa 0,0 l/m 3,4 km/h N 10,0 C 18,1 C 12,5 km/h
20.05.2013 19:00 17,7 C 58 % 1011,3 hPa 0,0 l/m 1,7 km/h N 9,4 C 17,7 C 8,4 km/h
20.05.2013 20:00 15,9 C 65 % 1011,5 hPa 0,0 l/m 0,0 km/h N 9,4 C 15,9 C 0,4 km/h
20.05.2013 21:00 14,1 C 73 % 1011,8 hPa 0,0 l/m 0,0 km/h N 9,4 C 14,1 C 1,2 km/h
20.05.2013 22:00 12,8 C 78 % 1012,3 hPa 0,0 l/m 0,1 km/h N 9,0 C 12,8 C 0,8 km/h
20.05.2013 23:00 11,8 C 82 % 1012,4 hPa 0,0 l/m 0,0 km/h N 8,8 C 11,8 C 1,2 km/h
21.05.2013 00:00 10,9 C 81 % 1012,3 hPa 0,0 l/m 0,1 km/h N 7,8 C 10,9 C 2,0 km/h
21.05.2013 01:00 10,2 C 80 % 1012,6 hPa 0,0 l/m 0,0 km/h N 6,8 C 10,2 C 0,4 km/h
21.05.2013 02:00 9,9 C 80 % 1012,5 hPa 0,0 l/m 0,5 km/h N 6,5 C 9,9 C 4,8 km/h
21.05.2013 03:00 10,9 C 74 % 1012,3 hPa 0,0 l/m 0,6 km/h N 6,5 C 10,9 C 6,0 km/h
21.05.2013 04:00 12,6 C 68 % 1012,0 hPa 0,0 l/m 4,5 km/h N 6,8 C 12,4 C 19,7 km/h
21.05.2013 05:00 13,1 C 68 % 1012,1 hPa 0,0 l/m 2,9 km/h N 7,3 C 13,1 C 15,3 km/h
21.05.2013 06:00 12,9 C 71 % 1012,2 hPa 0,0 l/m 0,9 km/h N 7,7 C 12,9 C 7,6 km/h
21.05.2013 07:00 13,8 C 70 % 1012,4 hPa 0,0 l/m 5,6 km/h N 8,4 C 13,4 C 18,1 km/h
21.05.2013 08:00 14,8 C 68 % 1012,5 hPa 0,0 l/m 8,1 km/h N 8,9 C 13,8 C 21,3 km/h
21.05.2013 09:00 15,4 C 68 % 1012,6 hPa 0,0 l/m 7,4 km/h N 9,4 C 14,8 C 18,9 km/h
21.05.2013 10:00 15,8 C 66 % 1013,1 hPa 0,0 l/m 5,6 km/h N 9,3 C 15,6 C 17,3 km/h
21.05.2013 11:00 16,9 C 64 % 1013,0 hPa 0,0 l/m 5,0 km/h N 10,0 C 16,9 C 17,3 km/h
21.05.2013 12:00 17,5 C 61 % 1012,6 hPa 0,0 l/m 4,3 km/h N 9,9 C 17,5 C 14,1 km/h
21.05.2013 13:00 18,6 C 59 % 1011,8 hPa 0,0 l/m 3,0 km/h N 10,4 C 18,6 C 10,5 km/h
21.05.2013 14:00 20,2 C 50 % 1011,0 hPa 0,0 l/m 3,5 km/h N 9,4 C 20,2 C 12,5 km/h
21.05.2013 15:00 20,3 C 49 % 1010,1 hPa 0,0 l/m 3,1 km/h N 9,3 C 20,3 C 11,7 km/h
21.05.2013 16:00 20,2 C 51 % 1009,2 hPa 0,0 l/m 2,7 km/h N 9,7 C 20,2 C 11,3 km/h
21.05.2013 17:00 19,2 C 56 % 1008,6 hPa 0,0 l/m 1,1 km/h N 10,0 C 19,2 C 8,1 km/h
21.05.2013 18:00 17,9 C 62 % 1008,3 hPa 1,6 l/m 0,6 km/h N 10,4 C 17,9 C 8,4 km/h
21.05.2013 19:00 12,6 C 76 % 1009,4 hPa 5,7 l/m 5,7 km/h N 8,5 C 12,2 C 18,1 km/h
21.05.2013 20:00 11,0 C 83 % 1009,4 hPa 11,4 l/m 2,8 km/h N 8,2 C 11,0 C 11,3 km/h
21.05.2013 21:00 11,2 C 81 % 1009,9 hPa 4,2 l/m 3,7 km/h N 8,1 C 11,2 C 16,9 km/h
21.05.2013 22:00 11,2 C 82 % 1009,9 hPa 0,5 l/m 2,5 km/h N 8,2 C 11,2 C 9,6 km/h
21.05.2013 23:00 11,0 C 81 % 1009,8 hPa 0,5 l/m 1,4 km/h N 7,9 C 11,0 C 7,2 km/h
22.05.2013 00:00 10,8 C 81 % 1009,3 hPa 0,0 l/m 2,0 km/h N 7,7 C 10,8 C 9,7 km/h
22.05.2013 01:00 10,2 C 83 % 1008,5 hPa 0,0 l/m 0,6 km/h N 7,4 C 10,2 C 5,2 km/h
22.05.2013 02:00 9,4 C 84 % 1007,9 hPa 0,0 l/m 0,0 km/h N 6,7 C 9,4 C 0,4 km/h
22.05.2013 03:00 8,8 C 83 % 1007,5 hPa 0,0 l/m 0,0 km/h N 6,1 C 8,8 C 0,8 km/h
22.05.2013 04:00 9,1 C 82 % 1007,3 hPa 0,0 l/m 0,3 km/h N 6,2 C 9,1 C 5,9 km/h
22.05.2013 05:00 9,3 C 82 % 1007,0 hPa 0,0 l/m 0,4 km/h N 6,3 C 9,3 C 4,8 km/h
22.05.2013 06:00 10,6 C 83 % 1007,1 hPa 0,0 l/m 2,1 km/h N 7,8 C 10,6 C 13,3 km/h
22.05.2013 07:00 11,9 C 80 % 1007,4 hPa 0,0 l/m 2,0 km/h N 8,4 C 11,9 C 12,1 km/h
22.05.2013 08:00 12,8 C 77 % 1007,3 hPa 0,0 l/m 2,5 km/h N 8,9 C 12,8 C 15,7 km/h
22.05.2013 09:00 13,9 C 74 % 1007,3 hPa 0,0 l/m 2,4 km/h N 9,3 C 13,9 C 12,9 km/h
22.05.2013 10:00 15,1 C 67 % 1007,3 hPa 0,0 l/m 9,1 km/h N 9,0 C 13,8 C 25,3 km/h
22.05.2013 11:00 16,0 C 65 % 1007,1 hPa 0,0 l/m 6,8 km/h N 9,3 C 15,7 C 20,9 km/h
22.05.2013 12:00 16,9 C 61 % 1006,5 hPa 0,0 l/m 8,8 km/h N 9,3 C 15,7 C 23,7 km/h
22.05.2013 13:00 17,9 C 58 % 1005,9 hPa 0,0 l/m 6,5 km/h N 9,4 C 17,7 C 20,1 km/h
22.05.2013 14:00 19,5 C 51 % 1005,3 hPa 0,0 l/m 5,6 km/h N 9,0 C 19,3 C 19,3 km/h
22.05.2013 15:00 19,7 C 47 % 1005,0 hPa 0,0 l/m 4,9 km/h N 8,0 C 19,7 C 17,3 km/h
22.05.2013 16:00 19,7 C 45 % 1004,7 hPa 0,0 l/m 6,6 km/h N 7,4 C 19,4 C 22,1 km/h
22.05.2013 17:00 20,0 C 45 % 1004,4 hPa 0,0 l/m 6,6 km/h N 7,8 C 19,8 C 22,1 km/h
22.05.2013 18:00 19,1 C 49 % 1004,5 hPa 0,0 l/m 11,7 km/h N 8,1 C 17,1 C 30,6 km/h
22.05.2013 19:00 16,7 C 56 % 1005,0 hPa 0,0 l/m 12,6 km/h N 7,8 C 14,0 C 36,2 km/h
22.05.2013 20:00 14,9 C 63 % 1005,9 hPa 0,0 l/m 12,5 km/h N 7,9 C 11,9 C 33,0 km/h
22.05.2013 21:00 14,2 C 68 % 1007,1 hPa 0,0 l/m 10,0 km/h N 8,5 C 12,3 C 26,9 km/h
22.05.2013 22:00 12,7 C 79 % 1008,3 hPa 3,1 l/m 6,7 km/h N 9,1 C 12,1 C 18,9 km/h
22.05.2013 23:00 11,2 C 83 % 1008,5 hPa 1,0 l/m 6,1 km/h N 8,4 C 11,0 C 20,5 km/h
23.05.2013 00:00 10,6 C 83 % 1008,3 hPa 0,0 l/m 8,4 km/h N 7,8 C 9,3 C 21,7 km/h
23.05.2013 01:00 10,6 C 83 % 1008,8 hPa 0,0 l/m 7,0 km/h N 7,8 C 10,1 C 20,1 km/h
23.05.2013 02:00 9,6 C 81 % 1009,3 hPa 0,0 l/m 6,0 km/h N 6,5 C 9,4 C 18,5 km/h
23.05.2013 03:00 9,2 C 80 % 1008,7 hPa 0,0 l/m 3,5 km/h N 5,9 C 9,2 C 12,5 km/h
23.05.2013 04:00 8,6 C 83 % 1008,3 hPa 0,0 l/m 2,5 km/h N 5,8 C 8,6 C 8,9 km/h
23.05.2013 05:00 8,6 C 81 % 1008,2 hPa 0,0 l/m 4,5 km/h N 5,5 C 8,6 C 13,3 km/h
23.05.2013 06:00 8,8 C 80 % 1008,4 hPa 0,3 l/m 5,6 km/h N 5,6 C 8,8 C 18,5 km/h
23.05.2013 07:00 9,3 C 79 % 1008,7 hPa 0,0 l/m 6,6 km/h N 5,8 C 9,0 C 18,5 km/h
23.05.2013 08:00 9,9 C 73 % 1008,7 hPa 0,0 l/m 7,4 km/h N 5,2 C 9,2 C 19,3 km/h
23.05.2013 09:00 10,7 C 66 % 1008,1 hPa 0,0 l/m 8,9 km/h N 4,5 C 9,1 C 22,1 km/h
23.05.2013 10:00 11,3 C 62 % 1007,9 hPa 0,0 l/m 9,5 km/h N 4,1 C 9,3 C 22,9 km/h
23.05.2013 11:00 11,6 C 62 % 1007,8 hPa 0,0 l/m 10,1 km/h N 4,6 C 9,3 C 23,7 km/h
23.05.2013 12:00 12,5 C 57 % 1007,2 hPa 0,0 l/m 11,0 km/h N 4,2 C 9,9 C 27,0 km/h
23.05.2013 13:00 13,0 C 55 % 1006,8 hPa 0,0 l/m 9,8 km/h N 4,1 C 11,0 C 23,7 km/h
23.05.2013 14:00 13,2 C 53 % 1006,1 hPa 0,0 l/m 9,8 km/h N 3,9 C 11,2 C 24,5 km/h
23.05.2013 15:00 13,0 C 55 % 1005,8 hPa 0,0 l/m 9,4 km/h N 4,1 C 11,2 C 22,1 km/h
23.05.2013 16:00 12,8 C 53 % 1005,5 hPa 0,0 l/m 9,1 km/h N 3,6 C 11,2 C 22,9 km/h
23.05.2013 17:00 12,8 C 53 % 1005,4 hPa 0,0 l/m 8,1 km/h N 3,3 C 11,7 C 22,5 km/h
23.05.2013 18:00 12,4 C 54 % 1005,7 hPa 0,0 l/m 6,2 km/h N 3,3 C 12,3 C 16,9 km/h
23.05.2013 19:00 12,0 C 55 % 1005,6 hPa 0,0 l/m 3,4 km/h N 3,2 C 12,0 C 12,5 km/h
23.05.2013 20:00 11,4 C 60 % 1005,4 hPa 0,0 l/m 0,8 km/h N 3,8 C 11,4 C 6,0 km/h
23.05.2013 21:00 10,3 C 66 % 1005,4 hPa 0,0 l/m 0,1 km/h N 4,2 C 10,3 C 1,2 km/h
23.05.2013 22:00 8,5 C 73 % 1005,2 hPa 0,0 l/m 0,0 km/h N 4,0 C 8,5 C 0,4 km/h
23.05.2013 23:00 7,6 C 76 % 1005,2 hPa 0,0 l/m 0,4 km/h N 3,6 C 7,6 C 3,6 km/h
24.05.2013 00:00 9,3 C 69 % 1005,3 hPa 0,0 l/m 2,3 km/h N 3,9 C 9,3 C 10,9 km/h
24.05.2013 01:00 9,7 C 68 % 1005,5 hPa 0,0 l/m 3,1 km/h N 4,0 C 9,7 C 12,1 km/h
24.05.2013 02:00 9,4 C 68 % 1005,8 hPa 0,0 l/m 4,8 km/h N 3,8 C 9,3 C 14,5 km/h
24.05.2013 03:00 8,9 C 70 % 1005,9 hPa 0,0 l/m 2,8 km/h N 3,6 C 8,9 C 10,9 km/h
24.05.2013 04:00 8,6 C 71 % 1006,1 hPa 0,0 l/m 4,6 km/h N 3,6 C 8,6 C 16,5 km/h
24.05.2013 05:00 8,5 C 72 % 1006,3 hPa 0,0 l/m 6,4 km/h N 3,7 C 8,3 C 19,7 km/h
24.05.2013 06:00 8,6 C 77 % 1006,3 hPa 0,0 l/m 7,2 km/h N 4,8 C 8,1 C 19,3 km/h
24.05.2013 07:00 9,6 C 76 % 1006,5 hPa 0,0 l/m 8,3 km/h N 5,5 C 8,3 C 22,1 km/h
24.05.2013 08:00 11,1 C 70 % 1006,8 hPa 0,0 l/m 10,3 km/h N 5,8 C 8,7 C 26,1 km/h
24.05.2013 09:00 11,3 C 67 % 1006,8 hPa 0,0 l/m 12,0 km/h N 5,4 C 8,0 C 29,0 km/h
24.05.2013 10:00 11,7 C 65 % 1007,1 hPa 0,0 l/m 12,7 km/h N 5,3 C 8,2 C 29,8 km/h
24.05.2013 11:00 12,4 C 64 % 1007,3 hPa 0,0 l/m 10,4 km/h N 5,7 C 10,1 C 28,2 km/h
24.05.2013 12:00 12,5 C 64 % 1007,2 hPa 0,0 l/m 9,4 km/h N 5,9 C 10,7 C 28,5 km/h
24.05.2013 13:00 13,0 C 62 % 1007,1 hPa 0,0 l/m 8,6 km/h N 6,0 C 11,7 C 24,9 km/h
24.05.2013 14:00 13,2 C 60 % 1007,1 hPa 0,0 l/m 9,4 km/h N 5,5 C 11,5 C 25,3 km/h
24.05.2013 15:00 14,3 C 58 % 1006,9 hPa 0,0 l/m 9,1 km/h N 6,2 C 12,8 C 22,9 km/h
24.05.2013 16:00 14,1 C 57 % 1007,1 hPa 0,0 l/m 8,0 km/h N 5,6 C 13,2 C 20,9 km/h
24.05.2013 17:00 13,9 C 58 % 1007,1 hPa 0,0 l/m 9,1 km/h N 5,6 C 12,3 C 22,1 km/h
24.05.2013 18:00 13,4 C 59 % 1007,2 hPa 0,0 l/m 9,5 km/h N 5,5 C 11,6 C 24,9 km/h
24.05.2013 19:00 11,7 C 62 % 1007,4 hPa 0,0 l/m 8,4 km/h N 4,7 C 10,4 C 20,1 km/h
24.05.2013 20:00 10,6 C 66 % 1007,5 hPa 0,0 l/m 6,6 km/h N 4,5 C 10,1 C 20,5 km/h
24.05.2013 21:00 10,1 C 70 % 1008,1 hPa 0,0 l/m 8,5 km/h N 4,8 C 8,6 C 21,3 km/h
24.05.2013 22:00 9,3 C 75 % 1008,7 hPa 0,0 l/m 3,9 km/h N 5,1 C 9,3 C 17,3 km/h
24.05.2013 23:00 8,5 C 78 % 1009,0 hPa 0,0 l/m 2,6 km/h N 4,9 C 8,5 C 16,1 km/h
25.05.2013 00:00 8,1 C 77 % 1009,0 hPa 0,0 l/m 7,2 km/h N 4,4 C 7,5 C 22,5 km/h
25.05.2013 01:00 7,9 C 78 % 1008,8 hPa 0,0 l/m 5,8 km/h N 4,4 C 7,7 C 20,5 km/h
25.05.2013 02:00 7,7 C 79 % 1008,5 hPa 0,0 l/m 5,3 km/h N 4,2 C 7,6 C 16,9 km/h
25.05.2013 03:00 7,4 C 79 % 1008,4 hPa 0,0 l/m 4,0 km/h N 4,0 C 7,4 C 14,5 km/h
25.05.2013 04:00 7,4 C 78 % 1008,1 hPa 0,0 l/m 3,2 km/h N 3,8 C 7,4 C 14,0 km/h
25.05.2013 05:00 7,2 C 79 % 1008,3 hPa 0,0 l/m 1,7 km/h N 3,8 C 7,2 C 9,6 km/h
25.05.2013 06:00 7,6 C 78 % 1008,4 hPa 0,0 l/m 5,5 km/h N 4,0 C 7,5 C 17,3 km/h
25.05.2013 07:00 8,3 C 77 % 1008,3 hPa 0,0 l/m 5,6 km/h N 4,4 C 8,1 C 20,5 km/h
25.05.2013 08:00 8,8 C 75 % 1008,7 hPa 0,0 l/m 8,4 km/h N 4,5 C 7,3 C 21,3 km/h
25.05.2013 09:00 9,1 C 74 % 1009,2 hPa 0,0 l/m 9,6 km/h N 4,7 C 6,9 C 24,1 km/h
25.05.2013 10:00 9,8 C 71 % 1009,6 hPa 0,0 l/m 8,5 km/h N 4,8 C 8,4 C 22,9 km/h
25.05.2013 11:00 10,1 C 70 % 1009,6 hPa 0,0 l/m 11,1 km/h N 4,9 C 7,1 C 29,0 km/h
25.05.2013 12:00 11,1 C 68 % 1009,5 hPa 0,0 l/m 9,1 km/h N 5,5 C 9,3 C 23,3 km/h
25.05.2013 13:00 11,4 C 68 % 1009,4 hPa 0,0 l/m 8,5 km/h N 5,7 C 10,1 C 24,1 km/h
25.05.2013 14:00 12,5 C 67 % 1009,1 hPa 0,0 l/m 8,2 km/h N 6,5 C 11,4 C 22,5 km/h
25.05.2013 15:00 12,8 C 67 % 1008,9 hPa 0,0 l/m 5,9 km/h N 6,8 C 12,6 C 18,9 km/h
25.05.2013 16:00 13,3 C 66 % 1008,7 hPa 0,0 l/m 4,6 km/h N 7,1 C 13,3 C 18,9 km/h
25.05.2013 17:00 13,6 C 65 % 1008,5 hPa 0,0 l/m 5,2 km/h N 7,2 C 13,5 C 17,3 km/h
25.05.2013 18:00 12,9 C 66 % 1008,5 hPa 0,0 l/m 1,9 km/h N 6,6 C 12,9 C 9,6 km/h
25.05.2013 19:00 12,0 C 67 % 1008,6 hPa 0,0 l/m 3,6 km/h N 6,1 C 12,0 C 14,1 km/h
25.05.2013 20:00 11,5 C 69 % 1008,7 hPa 0,0 l/m 1,3 km/h N 5,9 C 11,5 C 7,7 km/h
25.05.2013 21:00 10,6 C 70 % 1008,7 hPa 0,0 l/m 3,7 km/h N 5,3 C 10,6 C 14,5 km/h
25.05.2013 22:00 10,4 C 72 % 1008,9 hPa 0,0 l/m 6,3 km/h N 5,6 C 10,1 C 22,1 km/h
25.05.2013 23:00 10,6 C 72 % 1009,2 hPa 0,0 l/m 7,1 km/h N 5,8 C 9,9 C 20,9 km/h
26.05.2013 00:00 10,5 C 72 % 1009,2 hPa 0,0 l/m 6,1 km/h N 5,7 C 10,3 C 19,7 km/h
26.05.2013 01:00 10,1 C 74 % 1008,7 hPa 0,0 l/m 4,6 km/h N 5,7 C 10,1 C 14,5 km/h
26.05.2013 02:00 9,9 C 74 % 1008,5 hPa 0,0 l/m 3,9 km/h N 5,4 C 9,9 C 13,7 km/h
26.05.2013 03:00 9,3 C 75 % 1008,4 hPa 0,0 l/m 4,1 km/h N 5,2 C 9,3 C 13,3 km/h
26.05.2013 04:00 9,4 C 77 % 1008,3 hPa 0,0 l/m 6,4 km/h N 5,4 C 9,4 C 20,9 km/h
26.05.2013 05:00 9,3 C 78 % 1008,2 hPa 0,0 l/m 7,2 km/h N 5,7 C 8,7 C 19,3 km/h
26.05.2013 06:00 9,6 C 78 % 1008,5 hPa 0,0 l/m 6,4 km/h N 5,9 C 9,6 C 20,9 km/h
26.05.2013 07:00 10,4 C 74 % 1008,5 hPa 0,0 l/m 8,1 km/h N 5,9 C 9,3 C 23,3 km/h
26.05.2013 08:00 11,7 C 67 % 1008,8 hPa 0,0 l/m 9,6 km/h N 5,9 C 9,9 C 27,9 km/h
26.05.2013 09:00 12,7 C 63 % 1008,8 hPa 0,0 l/m 9,3 km/h N 5,7 C 11,0 C 29,0 km/h
26.05.2013 10:00 12,9 C 59 % 1008,7 hPa 0,0 l/m 14,1 km/h N 5,1 C 9,0 C 34,6 km/h
26.05.2013 11:00 13,5 C 59 % 1008,3 hPa 0,0 l/m 16,4 km/h N 5,5 C 8,9 C 41,8 km/h
26.05.2013 12:00 13,8 C 56 % 1008,6 hPa 0,0 l/m 17,7 km/h N 5,3 C 8,9 C 37,4 km/h
26.05.2013 13:00 14,0 C 55 % 1008,7 hPa 0,0 l/m 15,8 km/h N 5,1 C 9,8 C 39,8 km/h
26.05.2013 14:00 14,7 C 53 % 1008,2 hPa 0,0 l/m 14,9 km/h N 5,2 C 10,9 C 37,4 km/h
26.05.2013 15:00 15,0 C 53 % 1008,0 hPa 0,0 l/m 12,5 km/h N 5,4 C 12,2 C 38,6 km/h
26.05.2013 16:00 13,9 C 55 % 1008,2 hPa 0,0 l/m 16,0 km/h N 4,9 C 9,5 C 42,3 km/h
26.05.2013 17:00 13,6 C 56 % 1008,5 hPa 0,0 l/m 11,4 km/h N 5,0 C 11,0 C 31,8 km/h
26.05.2013 18:00 12,6 C 57 % 1008,3 hPa 0,0 l/m 15,6 km/h N 4,4 C 8,1 C 38,6 km/h
26.05.2013 19:00 11,6 C 60 % 1008,6 hPa 0,0 l/m 11,8 km/h N 4,2 C 8,5 C 36,6 km/h
26.05.2013 20:00 10,0 C 67 % 1008,8 hPa 0,0 l/m 14,2 km/h N 4,2 C 5,5 C 33,8 km/h
26.05.2013 21:00 9,7 C 68 % 1009,3 hPa 0,0 l/m 10,2 km/h N 4,0 C 7,2 C 31,4 km/h
26.05.2013 22:00 9,7 C 67 % 1009,4 hPa 0,0 l/m 6,8 km/h N 3,8 C 9,1 C 27,3 km/h
26.05.2013 23:00 9,6 C 67 % 1009,3 hPa 0,0 l/m 4,9 km/h N 3,8 C 9,6 C 25,0 km/h
Min-Datum _ 25.05.13 22.05.13 22.05.13 - 20.05.13 - 23.05.13 26.05.13 20.05.13
_ Min-Zeit 05:15 15:30 17:30 - 11:45 - 18:45 20:30 20:15
Minimum _ 7,2 C 42 % 1004,3 hPa - 0,0 km/h - 3,0 C 4,7 C 0,0 km/h
Max-Datum _ 21.05.13 22.05.13 20.05.13 21.05.13 26.05.13 - 20.05.13 21.05.13 26.05.13
_ Max-Zeit 15:15 02:15 13:30 20:00 12:15 - 12:15 15:00 16:45
Maximum _ 21,1 C 84 % 1014,0 hPa 11,4 l/m 21,2 km/h
N
- 12,2 C 21,0 C 51,5 km/h
N
Durchschnitt _ 12,5 C 68 % 1008,7 hPa #29,1 l/m 5,9 km/h N 6,5 C 11,7 C 18,4 km/h